Time;durP1;ratioP1;P1;durP2;ratioP2;P2;SDS_P1;SDS_P2;PMS_P1;PMS_P2;Temp;Humidity;BMP_temperature;BMP_pressure;BME280_temperature;BME280_humidity;BME280_pressure;Samples;Min_cycle;Max_cycle;Signal;HPM_P1;HPM_P2
2022/11/14 00:00:20;;;;;;;5.63;3.50;;;;;;;;;;21077886;28;20319;-67
2022/11/14 00:10:41;;;;;;;4.63;3.07;;;;;;;;;;21075177;28;20200;-67
2022/11/14 00:21:01;;;;;;;4.93;3.17;;;;;;;;;;21076196;28;20216;-66
2022/11/14 00:31:21;;;;;;;4.97;2.90;;;;;;;;;;21065990;28;20216;-66
2022/11/14 00:41:41;;;;;;;5.50;3.47;;;6.50;99.90;;;;;;21074162;28;20216;-66
2022/11/14 00:52:02;;;;;;;5.90;3.13;;;;;;;;;;21057921;28;20544;-67
2022/11/14 01:02:22;;;;;;;5.83;3.30;;;;;;;;;;21071698;28;20851;-66
2022/11/14 01:12:43;;;;;;;5.77;3.23;;;;;;;;;;21070454;28;20243;-66
2022/11/14 01:23:03;;;;;;;5.57;3.13;;;;;;;;;;21071696;28;20220;-66
2022/11/14 01:33:23;;;;;;;5.70;2.97;;;;;;;;;;21069824;28;20213;-66
2022/11/14 01:43:44;;;;;;;5.33;3.07;;;;;;;;;;21068566;28;20216;-66
2022/11/14 01:54:39;;;;;;;5.37;3.17;;;6.90;99.90;;;;;;21068170;28;20212;-66
2022/11/14 02:05:12;;;;;;;5.77;3.57;;;;;;;;;;21067383;28;20695;-67
2022/11/14 02:15:33;;;;;;;6.70;3.13;;;;;;;;;;21067093;28;20265;-67
2022/11/14 02:25:53;;;;;;;3.83;2.53;;;6.80;99.90;;;;;;21065657;28;20220;-66
2022/11/14 02:36:14;;;;;;;5.23;3.23;;;;;;;;;;21065020;28;20649;-66
2022/11/14 02:46:35;;;;;;;4.57;2.47;;;;;;;;;;21065181;28;20262;-67
2022/11/14 02:56:55;;;;;;;4.67;3.03;;;;;;;;;;21075885;28;20208;-67
2022/11/14 03:07:16;;;;;;;5.03;3.03;;;;;;;;;;21078837;28;20269;-66
2022/11/14 03:17:36;;;;;;;4.90;2.90;;;;;;;;;;21065129;28;20200;-66
2022/11/14 03:27:56;;;;;;;10.27;3.63;;;;;;;;;;21073838;28;20213;-66
2022/11/14 03:38:17;;;;;;;9.20;3.40;;;;;;;;;;20955442;22;20229;-63
2022/11/14 03:48:38;;;;;;;4.40;2.60;;;;;;;;;;20870379;28;20214;-62
2022/11/14 03:58:59;;;;;;;5.80;3.23;;;;;;;;;;20885245;28;20241;-63
2022/11/14 04:09:19;;;;;;;3.17;2.07;;;;;;;;;;20867799;28;20210;-63
2022/11/14 04:19:40;;;;;;;4.23;2.37;;;;;;;;;;20881455;28;20226;-63
2022/11/14 04:30:01;;;;;;;3.90;2.00;;;;;;;;;;20882692;28;20289;-63
2022/11/14 04:40:21;;;;;;;2.83;1.67;;;;;;;;;;20906232;28;20217;-63
2022/11/14 04:50:41;;;;;;;4.27;2.50;;;;;;;;;;20926285;28;20209;-65
2022/11/14 05:01:12;;;;;;;4.57;2.50;;;6.50;99.90;;;;;;20952825;28;20229;-64
2022/11/14 05:11:33;;;;;;;2.97;2.40;;;;;;;;;;20962890;28;20541;-62
2022/11/14 05:21:53;;;;;;;3.70;2.37;;;;;;;;;;20958801;28;20217;-62
2022/11/14 05:32:13;;;;;;;3.17;1.70;;;;;;;;;;20886591;28;20579;-63
2022/11/14 05:42:34;;;;;;;4.10;2.37;;;;;;;;;;20859060;28;20298;-63
2022/11/14 05:52:55;;;;;;;4.30;2.57;;;;;;;;;;20874899;28;20213;-62
2022/11/14 06:03:16;;;;;;;3.63;2.27;;;;;;;;;;20888853;28;20222;-63
2022/11/14 06:13:37;;;;;;;4.30;2.57;;;6.50;99.90;;;;;;20859363;28;20231;-63
2022/11/14 06:23:57;;;;;;;5.00;2.80;;;;;;;;;;20871548;28;20699;-62
2022/11/14 06:34:18;;;;;;;3.80;2.23;;;;;;;;;;20860604;28;20679;-63
2022/11/14 06:44:38;;;;;;;4.77;2.70;;;;;;;;;;20952413;28;20270;-63
2022/11/14 06:54:59;;;;;;;4.50;2.60;;;;;;;;;;20939381;28;20699;-64
2022/11/14 07:05:19;;;;;;;3.87;1.83;;;;;;;;;;20952736;28;20213;-64
2022/11/14 07:15:39;;;;;;;3.43;1.93;;;;;;;;;;20855682;28;20283;-64
2022/11/14 07:26:01;;;;;;;2.37;1.57;;;6.20;99.90;;;;;;20867116;28;20214;-64
2022/11/14 07:36:22;;;;;;;3.87;2.23;;;;;;;;;;20864900;28;20225;-63
2022/11/14 07:46:43;;;;;;;2.63;1.80;;;;;;;;;;20874485;28;20213;-63
2022/11/14 07:57:04;;;;;;;3.57;1.93;;;;;;;;;;20876846;28;20226;-63
2022/11/14 08:07:25;;;;;;;2.93;1.77;;;;;;;;;;20898377;28;20234;-63
2022/11/14 08:17:44;;;;;;;3.17;2.10;;;;;;;;;;20882345;28;20628;-63
2022/11/14 08:28:05;;;;;;;2.53;1.63;;;;;;;;;;20870566;28;20217;-62
2022/11/14 08:38:25;;;;;;;3.23;2.20;;;;;;;;;;20883467;28;20287;-63
2022/11/14 08:48:46;;;;;;;2.63;1.67;;;;;;;;;;20882429;28;20214;-63
2022/11/14 08:59:07;;;;;;;3.00;1.63;;;;;;;;;;20881662;28;20292;-63
2022/11/14 09:09:28;;;;;;;2.20;1.53;;;;;;;;;;20882059;28;20280;-63
2022/11/14 09:19:48;;;;;;;3.87;2.17;;;;;;;;;;20793251;28;20219;-63
2022/11/14 09:30:09;;;;;;;2.10;1.60;;;;;;;;;;20854055;28;20213;-63
2022/11/14 09:40:39;;;;;;;2.67;1.97;;;7.00;99.90;;;;;;21043734;23;20281;-66
2022/11/14 09:51:07;;;;;;;3.67;2.23;;;;;;;;;;20983005;28;20224;-66
2022/11/14 10:01:27;;;;;;;3.97;2.03;;;;;;;;;;20982965;28;20287;-66
2022/11/14 10:12:01;;;;;;;2.93;1.70;;;7.30;99.90;;;;;;20982751;28;20233;-66
2022/11/14 10:22:30;;;;;;;2.83;1.77;;;;;;;;;;20982722;28;20239;-66
2022/11/14 10:32:51;;;;;;;2.90;1.83;;;;;;;;;;20982327;28;20274;-66
2022/11/14 10:43:16;;;;;;;3.13;2.00;;;;;;;;;;21021381;28;20245;-66
2022/11/14 10:53:49;;;;;;;3.50;1.97;;;;;;;;;;20979871;28;20285;-66
2022/11/14 11:04:29;;;;;;;3.23;1.77;;;;;;;;;;20974872;28;20233;-65
2022/11/14 11:15:13;;;;;;;2.27;1.53;;;;;;;;;;20979954;28;20212;-65
2022/11/14 11:25:35;;;;;;;1.70;1.10;;;7.40;99.90;;;;;;20994004;28;20228;-65
2022/11/14 11:36:02;;;;;;;2.80;1.70;;;7.40;99.90;;;;;;20987072;28;21001;-65
2022/11/14 11:46:25;;;;;;;3.07;1.30;;;;;;;;;;20997334;28;20221;-65
2022/11/14 11:56:47;;;;;;;2.30;1.57;;;;;;;;;;20995591;28;20239;-65
2022/11/14 12:07:26;;;;;;;2.77;1.40;;;;;;;;;;20995080;28;20633;-66
2022/11/14 12:17:54;;;;;;;2.80;1.30;;;;;;;;;;20994857;28;20197;-65
2022/11/14 12:28:26;;;;;;;5.17;2.17;;;7.50;99.90;;;;;;20992792;28;20217;-65
2022/11/14 12:38:49;;;;;;;1.80;1.10;;;;;;;;;;20993402;28;20221;-65
2022/11/14 12:49:46;;;;;;;6.10;1.77;;;7.40;99.90;;;;;;20991540;28;20217;-65
2022/11/14 13:00:07;;;;;;;5.47;2.67;;;;;;;;;;20991693;28;20777;-66
2022/11/14 13:10:30;;;;;;;2.83;2.00;;;7.60;99.90;;;;;;20990289;28;20251;-66
2022/11/14 13:31:42;;;;;;;2.80;1.47;;;;;;;;;;20990951;28;20225;-66
2022/11/14 13:42:08;;;;;;;2.37;1.37;;;8.00;99.90;;;;;;20987529;28;20266;-66
2022/11/14 13:52:32;;;;;;;2.93;1.37;;;7.90;99.90;;;;;;20984037;28;20217;-66
2022/11/14 14:03:01;;;;;;;4.27;2.83;;;7.90;99.90;;;;;;20979694;28;20243;-65
2022/11/14 14:13:22;;;;;;;3.20;2.00;;;;;;;;;;20985690;28;20221;-66
2022/11/14 14:23:56;;;;;;;2.40;1.60;;;8.00;99.90;;;;;;20985916;28;20224;-65
2022/11/14 14:34:20;;;;;;;6.23;1.83;;;8.00;99.90;;;;;;20983065;28;20220;-67
2022/11/14 14:44:40;;;;;;;3.33;1.87;;;;;;;;;;20976035;28;20274;-66
2022/11/14 14:55:01;;;;;;;2.53;1.73;;;8.30;99.90;;;;;;21002112;28;20258;-67
2022/11/14 15:05:24;;;;;;;2.47;1.40;;;;;;;;;;21007006;28;20302;-66
2022/11/14 15:15:44;;;;;;;3.00;1.97;;;;;;;;;;21007531;28;20205;-66
2022/11/14 15:26:13;;;;;;;2.97;1.90;;;8.10;99.90;;;;;;21005040;28;20282;-66
2022/11/14 15:36:33;;;;;;;3.37;2.07;;;;;;;;;;21053380;22;20706;-67
2022/11/14 15:46:54;;;;;;;6.20;1.57;;;;;;;;;;21084006;28;20216;-67
2022/11/14 15:57:18;;;;;;;2.43;1.43;;;;;;;;;;21094685;28;20274;-67
2022/11/14 16:07:39;;;;;;;4.90;1.50;;;;;;;;;;21059872;28;20225;-66
2022/11/14 16:17:59;;;;;;;5.23;1.73;;;;;;;;;;21061076;28;20205;-66
2022/11/14 16:28:19;;;;;;;2.63;1.70;;;;;;;;;;21061571;28;20220;-67
2022/11/14 16:38:40;;;;;;;3.17;1.80;;;;;;;;;;20989329;28;20239;-67
2022/11/14 16:49:00;;;;;;;2.30;1.63;;;;;;;;;;21047497;28;20212;-67
2022/11/14 16:59:20;;;;;;;2.77;1.63;;;;;;;;;;21069948;28;20238;-67
2022/11/14 17:09:41;;;;;;;2.93;1.63;;;;;;;;;;21055087;28;20228;-67
2022/11/14 17:20:02;;;;;;;2.97;1.80;;;;;;;;;;21028751;28;20256;-67
2022/11/14 17:30:24;;;;;;;2.20;1.50;;;;;;;;;;21052330;28;20632;-65
2022/11/14 17:40:44;;;;;;;1.93;1.37;;;;;;;;;;21057094;28;20318;-67
2022/11/14 17:51:05;;;;;;;2.70;1.40;;;;;;;;;;21063441;28;20209;-67
2022/11/14 18:01:27;;;;;;;2.47;1.30;;;;;;;;;;21050878;28;20787;-67
2022/11/14 18:11:48;;;;;;;3.40;1.43;;;;;;;;;;21052515;28;20674;-66
2022/11/14 18:22:08;;;;;;;3.17;1.53;;;;;;;;;;21075960;28;20239;-67
2022/11/14 18:32:29;;;;;;;3.27;2.00;;;;;;;;;;21040895;28;20263;-67
2022/11/14 18:42:50;;;;;;;2.83;1.67;;;;;;;;;;21020899;28;20587;-68
2022/11/14 18:53:10;;;;;;;3.23;1.43;;;;;;;;;;21047955;28;20281;-68
2022/11/14 19:03:31;;;;;;;1.97;1.23;;;;;;;;;;21054704;28;20368;-67
2022/11/14 19:13:51;;;;;;;3.23;1.70;;;;;;;;;;21055109;28;20456;-68
2022/11/14 19:24:11;;;;;;;2.53;1.30;;;;;;;;;;21054737;28;20208;-67
2022/11/14 19:34:32;;;;;;;3.07;1.60;;;;;;;;;;21057785;28;20285;-68
2022/11/14 19:44:53;;;;;;;2.60;1.07;;;;;;;;;;21067423;28;20614;-68
2022/11/14 19:55:13;;;;;;;2.73;1.33;;;;;;;;;;21067480;28;20292;-67
2022/11/14 20:05:34;;;;;;;5.37;2.20;;;;;;;;;;21068003;28;20220;-68
2022/11/14 20:15:54;;;;;;;4.03;2.20;;;;;;;;;;21070915;28;20221;-69
2022/11/14 20:26:16;;;;;;;4.83;2.30;;;;;;;;;;21073971;28;20285;-68
2022/11/14 20:36:37;;;;;;;1.87;1.43;;;;;;;;;;21072219;28;20219;-68
2022/11/14 20:46:58;;;;;;;3.53;1.80;;;;;;;;;;21053261;28;20293;-68
2022/11/14 20:57:18;;;;;;;2.83;1.60;;;;;;;;;;21068567;28;20699;-68
2022/11/14 21:07:38;;;;;;;8.93;1.70;;;;;;;;;;21068898;28;20797;-68
2022/11/14 21:17:59;;;;;;;2.80;1.57;;;;;;;;;;21067689;28;20289;-68
2022/11/14 21:28:20;;;;;;;2.77;1.63;;;;;;;;;;21071532;28;20590;-68
2022/11/14 21:38:40;;;;;;;3.63;2.03;;;;;;;;;;21100007;22;20254;-64
2022/11/14 21:49:00;;;;;;;2.30;1.47;;;;;;;;;;21071472;28;20216;-66
2022/11/14 21:59:25;;;;;;;2.60;1.50;;;;;;;;;;21070505;28;20246;-66
2022/11/14 22:09:45;;;;;;;2.10;1.40;;;;;;;;;;21068716;28;20262;-67
2022/11/14 22:20:06;;;;;;;2.63;1.27;;;8.90;99.90;;;;;;21067879;28;20224;-65
2022/11/14 22:30:27;;;;;;;3.07;1.30;;;;;;;;;;21069017;28;20671;-66
2022/11/14 22:40:47;;;;;;;2.10;1.00;;;;;;;;;;21061507;28;20683;-65
2022/11/14 22:51:12;;;;;;;2.60;1.30;;;8.90;99.90;;;;;;21068844;28;20671;-65
2022/11/14 23:01:33;;;;;;;1.70;0.90;;;;;;;;;;21067703;28;20270;-65
2022/11/14 23:11:53;;;;;;;2.40;1.53;;;;;;;;;;21075595;28;20231;-65
2022/11/14 23:22:14;;;;;;;2.27;1.50;;;;;;;;;;21083125;28;20262;-65
2022/11/14 23:32:34;;;;;;;3.43;1.53;;;;;;;;;;21082757;28;20208;-67
2022/11/14 23:42:54;;;;;;;2.70;1.30;;;;;;;;;;21083069;28;20208;-66
2022/11/14 23:53:15;;;;;;;2.80;1.33;;;;;;;;;;21081622;28;20200;-66
